Time;durP1;ratioP1;P1;durP2;ratioP2;P2;SDS_P1;SDS_P2;PMS_P1;PMS_P2;Temp;Humidity;BMP_temperature;BMP_pressure;BME280_temperature;BME280_humidity;BME280_pressure;Samples;Min_cycle;Max_cycle;Signal;HPM_P1;HPM_P2
2022/04/26 03:36:40;;;;;;;7.97;6.75;;;;;;;8.37;73.30;101454.63;5031878;28;20450;-63
2022/04/26 03:39:08;;;;;;;12.02;7.30;;;;;;;8.37;73.00;101459.06;5031046;28;20447;-63
2022/04/26 03:41:37;;;;;;;8.43;7.38;;;;;;;8.36;73.71;101457.34;5080010;28;20464;-63
2022/04/26 03:44:02;;;;;;;10.20;7.43;;;;;;;8.31;73.78;101456.69;5036426;28;20500;-63
2022/04/26 03:46:28;;;;;;;8.20;7.18;;;;;;;8.31;73.91;101460.19;5047311;28;20026;-63
2022/04/26 03:48:54;;;;;;;12.45;7.88;;;;;;;8.31;73.98;101467.28;5046921;28;20123;-63
2022/04/26 03:51:20;;;;;;;8.13;7.25;;;;;;;8.32;74.25;101463.69;5014519;28;21240;-64
2022/04/26 03:53:48;;;;;;;9.52;7.18;;;;;;;8.40;74.06;101467.78;5033371;28;20033;-63
2022/04/26 03:56:15;;;;;;;13.18;7.50;;;;;;;8.40;74.21;101467.78;5034059;28;20087;-63
2022/04/26 03:58:42;;;;;;;8.32;7.25;;;;;;;8.33;74.29;101463.66;5032719;28;21557;-63
2022/04/26 04:01:07;;;;;;;11.25;8.10;;;;;;;8.36;74.54;101473.25;5033439;28;20029;-63
2022/04/26 04:03:39;;;;;;;9.57;8.23;;;;;;;8.27;75.06;101466.56;5046473;28;20116;-64
2022/04/26 04:06:05;;;;;;;11.00;7.95;;;;;;;8.23;75.46;101464.97;5032132;28;20033;-63
2022/04/26 04:08:30;;;;;;;9.18;8.23;;;;;;;8.23;75.35;101470.25;5030537;28;20084;-63
2022/04/26 04:10:56;;;;;;;11.20;7.80;;;;;;;8.29;75.27;101469.13;5033011;28;20021;-63
2022/04/26 04:13:21;;;;;;;10.65;7.38;;;;;;;8.29;75.16;101477.09;5050331;28;20049;-63
2022/04/26 04:15:47;;;;;;;10.73;7.10;;;;;;;8.33;75.32;101476.03;5032248;28;20176;-63
2022/04/26 04:20:57;;;;;;;11.43;8.27;;;;;;;8.33;75.80;101489.28;5032234;28;20095;-63
2022/04/26 04:23:22;;;;;;;12.45;8.45;;;;;;;8.29;75.70;101490.34;5034353;28;20045;-63
2022/04/26 04:25:51;;;;;;;11.68;8.50;;;;;;;8.26;76.33;101491.31;5030436;28;20500;-63
2022/04/26 04:28:16;;;;;;;10.30;7.70;;;;;;;8.23;76.06;101487.94;5030073;28;20476;-63
2022/04/26 04:30:42;;;;;;;10.07;8.35;;;;;;;8.30;75.79;101494.72;5029045;28;20052;-63
2022/04/26 04:33:10;;;;;;;9.85;7.50;;;;;;;8.33;75.58;101498.09;5052531;28;20040;-63
2022/04/26 04:35:38;;;;;;;12.80;8.80;;;;;;;8.27;75.78;101497.50;5030757;28;20448;-63
2022/04/26 04:38:04;;;;;;;12.68;8.07;;;;;;;8.31;75.95;101499.94;5048709;28;20033;-63
2022/04/26 04:40:30;;;;;;;10.32;7.90;;;;;;;8.32;75.41;101499.00;5029226;28;20032;-63
2022/04/26 04:42:55;;;;;;;10.23;8.38;;;;;;;8.31;75.46;101504.41;5032624;28;20032;-63
2022/04/26 04:45:23;;;;;;;13.18;7.97;;;;;;;8.33;75.43;101503.41;5030121;28;20065;-63
2022/04/26 04:47:49;;;;;;;9.75;8.43;;;;;;;8.29;75.58;101500.94;5029100;28;20477;-63
2022/04/26 04:50:16;;;;;;;11.43;8.98;;;;;;;8.33;76.02;101513.16;5046216;28;20037;-63
2022/04/26 04:52:41;;;;;;;10.75;8.50;;;;;;;8.25;75.91;101505.50;5032147;28;20041;-63
2022/04/26 04:55:09;;;;;;;8.30;7.57;;;;;;;8.28;76.09;101515.13;5046231;28;20440;-63
2022/04/26 04:57:35;;;;;;;12.93;8.43;;;;;;;8.28;76.26;101521.28;5033726;28;20044;-63
2022/04/26 05:00:01;;;;;;;10.75;8.77;;;;;;;8.26;76.09;101511.66;5033482;28;20040;-64
2022/04/26 05:02:26;;;;;;;10.35;7.93;;;;;;;8.24;76.30;101525.00;5032910;28;20428;-63
2022/04/26 05:04:51;;;;;;;11.73;7.80;;;;;;;8.19;76.60;101524.31;5031309;28;20146;-63
2022/04/26 05:07:19;;;;;;;9.52;8.55;;;;;;;8.23;76.49;101527.69;5029995;28;20464;-63
2022/04/26 05:09:45;;;;;;;12.05;8.60;;;;;;;8.23;76.87;101535.66;5046766;28;20439;-63
2022/04/26 05:12:12;;;;;;;9.45;8.45;;;;;;;8.23;76.74;101539.16;5031710;28;20469;-63
2022/04/26 05:14:37;;;;;;;11.82;8.25;;;;;;;8.22;76.96;101547.19;5048051;28;20035;-63
2022/04/26 05:17:03;;;;;;;10.82;9.05;;;;;;;8.22;76.85;101549.84;5033152;28;20045;-63
2022/04/26 05:19:29;;;;;;;14.85;8.82;;;;;;;8.24;76.80;101550.66;5034774;28;20185;-63
2022/04/26 05:21:56;;;;;;;11.25;8.77;;;;;;;8.24;77.01;101551.50;5034569;28;20435;-63
2022/04/26 05:27:06;;;;;;;13.70;9.52;;;;;;;8.31;76.82;101560.03;5039314;28;20059;-63
2022/04/26 05:29:32;;;;;;;13.80;9.18;;;;;;;8.35;76.39;101546.63;5035951;28;20466;-63
2022/04/26 05:31:57;;;;;;;10.95;8.40;;;;;;;8.34;76.89;101560.78;5033072;28;20036;-63
2022/04/26 05:34:23;;;;;;;14.38;9.00;;;;;;;8.34;76.94;101565.22;5048956;28;20072;-63
2022/04/26 05:36:48;;;;;;;14.43;9.60;;;;;;;8.37;76.85;101565.09;5034387;28;20116;-63
2022/04/26 05:39:14;;;;;;;18.60;9.05;;;;;;;8.38;76.82;101570.38;5035951;28;20108;-63
2022/04/26 05:41:40;;;;;;;10.90;8.32;;;;;;;8.39;76.96;101572.09;5016015;28;20539;-63
2022/04/26 05:44:06;;;;;;;11.82;9.40;;;;;;;8.36;77.01;101566.88;5034626;28;20034;-63
2022/04/26 05:46:31;;;;;;;11.32;9.13;;;;;;;8.32;76.89;101567.91;5034249;28;20452;-63
2022/04/26 05:48:59;;;;;;;13.02;8.98;;;;;;;8.35;77.40;101566.94;5052600;28;20056;-63
2022/04/26 05:51:24;;;;;;;13.88;8.93;;;;;;;8.41;77.24;101575.53;5047322;28;20026;-63
2022/04/26 05:53:52;;;;;;;11.38;8.98;;;;;;;8.49;76.94;101571.69;5035015;28;20035;-63
2022/04/26 05:56:18;;;;;;;14.48;9.27;;;;;;;8.49;76.62;101577.84;5035717;28;20057;-63
2022/04/26 05:58:44;;;;;;;14.77;9.70;;;;;;;8.49;76.99;101577.84;5035526;28;20103;-63
2022/04/26 06:01:12;;;;;;;15.10;9.93;;;;;;;8.56;77.13;101568.72;5034517;28;20025;-63
2022/04/26 06:03:38;;;;;;;12.38;8.95;;;;;;;8.56;76.72;101571.38;5032217;28;20023;-63
2022/04/26 06:06:06;;;;;;;15.65;9.95;;;;;;;8.66;76.84;101578.94;5016741;28;20053;-63
2022/04/26 06:08:32;;;;;;;11.10;9.05;;;;;;;8.80;76.53;101571.22;5033264;28;20032;-63
2022/04/26 06:10:57;;;;;;;12.52;9.43;;;;;;;8.81;76.16;101580.91;5036167;28;20017;-63
2022/04/26 06:13:23;;;;;;;14.00;9.70;;;;;;;8.79;76.25;101578.31;5033035;28;20025;-63
2022/04/26 06:15:48;;;;;;;13.13;9.23;;;;;;;8.80;76.44;101590.66;5032259;28;20067;-63
2022/04/26 06:18:14;;;;;;;15.35;10.02;;;;;;;8.75;76.55;101586.47;5048099;28;20056;-63
2022/04/26 06:20:39;;;;;;;12.70;9.50;;;;;;;8.80;76.34;101589.81;5018823;28;20033;-64
2022/04/26 06:23:05;;;;;;;15.88;9.82;;;;;;;8.83;76.27;101589.66;5034658;28;20045;-63
2022/04/26 06:25:36;;;;;;;16.58;9.82;;;;;;;8.91;76.42;101595.47;5030540;28;20026;-63
2022/04/26 06:28:03;;;;;;;13.45;10.50;;;;;;;8.95;76.80;101599.72;5033547;28;20112;-64
2022/04/26 06:30:31;;;;;;;15.30;10.43;;;;;;;8.94;76.21;101603.31;5032920;28;20468;-63
2022/04/26 06:32:56;;;;;;;12.68;9.68;;;;;;;8.91;75.28;101598.13;5034586;28;20028;-63
2022/04/26 06:35:22;;;;;;;16.45;10.23;;;;;;;8.91;76.46;101607.88;5030810;28;20116;-63
2022/04/26 06:37:48;;;;;;;11.82;9.60;;;;;;;8.95;76.21;101609.47;5033104;28;20044;-63
2022/04/26 06:40:14;;;;;;;14.23;10.18;;;;;;;8.90;76.86;101600.84;5031424;28;20025;-63
2022/04/26 06:42:39;;;;;;;14.70;11.15;;;;;;;8.83;76.52;101605.56;5031623;28;20074;-64
2022/04/26 06:45:05;;;;;;;14.27;11.40;;;;;;;8.93;76.73;101606.88;5047296;28;20112;-63
2022/04/26 06:47:30;;;;;;;12.32;10.98;;;;;;;8.92;76.27;101609.63;5048416;28;20053;-63
2022/04/26 06:49:56;;;;;;;15.68;10.63;;;;;;;9.03;76.44;101621.47;5034117;28;20045;-63
2022/04/26 06:52:21;;;;;;;12.93;10.88;;;;;;;9.07;76.46;101623.06;5033300;28;20021;-63
2022/04/26 06:54:47;;;;;;;17.27;11.63;;;;;;;9.09;75.76;101626.53;5047409;28;20144;-63
2022/04/26 06:57:12;;;;;;;16.27;11.43;;;;;;;9.08;75.69;101621.25;5033280;28;20033;-63
2022/04/26 06:59:39;;;;;;;14.43;11.10;;;;;;;9.14;76.01;101623.63;5013890;28;20037;-63
2022/04/26 07:02:08;;;;;;;15.70;12.13;;;;;;;9.16;75.46;101632.41;5039593;28;20024;-63
2022/04/26 07:04:33;;;;;;;14.93;12.07;;;;;;;9.22;75.77;101628.63;5057105;28;20103;-63
2022/04/26 07:06:59;;;;;;;18.45;11.25;;;;;;;9.33;75.59;101629.84;5031977;28;20025;-63
2022/04/26 07:09:24;;;;;;;14.75;12.02;;;;;;;9.40;75.33;101632.22;5030552;28;20031;-63
2022/04/26 07:11:51;;;;;;;13.70;11.50;;;;;;;9.45;74.08;101624.94;5032613;28;20099;-63
2022/04/26 07:14:17;;;;;;;17.20;12.18;;;;;;;9.50;74.43;101631.75;5031235;28;20025;-63
2022/04/26 07:16:48;;;;;;;15.52;12.75;;;;;;;9.53;74.25;101628.94;5030688;28;20049;-63
2022/04/26 07:19:16;;;;;;;23.13;12.88;;;;;;;9.68;73.51;101622.06;5031171;28;20504;-63
2022/04/26 07:21:44;;;;;;;14.30;11.93;;;;;;;9.81;72.57;101635.63;5044045;28;20354;-63
2022/04/26 07:24:12;;;;;;;13.85;11.95;;;;;;;9.74;71.59;101634.19;5029654;28;20507;-63
2022/04/26 07:26:37;;;;;;;17.95;12.20;;;;;;;9.68;71.87;101624.72;5046758;28;20428;-63
2022/04/26 07:29:03;;;;;;;15.52;11.68;;;;;;;9.74;72.50;101637.72;5032299;28;20030;-63
2022/04/26 07:31:30;;;;;;;14.30;11.30;;;;;;;9.86;72.37;101649.56;5013752;28;20083;-63
2022/04/26 07:36:42;;;;;;;14.63;11.73;;;;;;;9.89;70.86;101645.91;5029448;28;20087;-63
2022/04/26 07:39:08;;;;;;;16.50;11.10;;;;;;;9.96;70.67;101647.31;5030888;28;20108;-63
2022/04/26 07:41:34;;;;;;;16.50;11.60;;;;;;;9.99;70.71;101653.34;5047807;28;20120;-63
2022/04/26 07:43:59;;;;;;;15.93;11.00;;;;;;;9.88;70.45;101630.88;5047178;28;20112;-64
2022/04/26 07:46:25;;;;;;;14.90;11.35;;;;;;;10.06;70.21;101659.25;5030874;28;20099;-63
2022/04/26 07:48:51;;;;;;;15.48;9.25;;;;;;;10.02;67.62;101647.88;5030512;28;20032;-63
2022/04/26 07:51:19;;;;;;;12.23;9.43;;;;;;;10.18;68.97;101660.47;5044991;28;20041;-63
2022/04/26 07:53:45;;;;;;;14.38;10.07;;;;;;;10.25;68.18;101667.19;5030381;28;20030;-63
2022/04/26 07:56:11;;;;;;;11.60;9.88;;;;;;;10.22;67.64;101665.53;5026799;28;20107;-63
2022/04/26 07:58:36;;;;;;;11.45;9.63;;;;;;;10.32;67.30;101668.63;5029885;28;20439;-63
2022/04/26 08:01:04;;;;;;;16.02;10.55;;;;;;;10.38;67.56;101673.69;5046354;28;20025;-63
2022/04/26 08:03:32;;;;;;;13.20;10.13;;;;;;;10.40;67.68;101671.78;5032536;28;20472;-63
2022/04/26 08:05:57;;;;;;;15.65;10.90;;;;;;;10.52;68.87;101677.44;5047725;28;20025;-63
2022/04/26 08:08:23;;;;;;;15.63;11.00;;;;;;;10.58;68.40;101683.31;5030124;28;20511;-63
2022/04/26 08:10:49;;;;;;;13.50;10.07;;;;;;;10.67;67.98;101688.16;5033030;28;20029;-63
2022/04/26 08:13:15;;;;;;;14.15;10.77;;;;;;;10.78;68.24;101684.13;5033343;28;20040;-63
2022/04/26 08:15:41;;;;;;;13.82;10.13;;;;;;;10.67;66.80;101685.50;5048775;28;20025;-63
2022/04/26 08:18:06;;;;;;;14.02;9.20;;;;;;;10.72;66.46;101698.59;5029320;28;20508;-63
2022/04/26 08:20:33;;;;;;;14.75;9.32;;;;;;;10.72;65.99;101700.41;5028351;28;20060;-64
2022/04/26 08:22:58;;;;;;;14.68;9.40;;;;;;;10.65;66.06;101706.03;5031585;28;20026;-63
2022/04/26 08:28:11;;;;;;;13.13;9.48;;;;;;;10.78;65.83;101705.41;5048745;28;20126;-63
2022/04/26 08:30:37;;;;;;;12.18;9.23;;;;;;;10.87;65.40;101710.25;5014540;28;20071;-63
2022/04/26 08:33:02;;;;;;;12.10;9.30;;;;;;;10.91;64.87;101707.38;5031176;28;20029;-63
2022/04/26 08:35:28;;;;;;;13.40;9.32;;;;;;;11.09;65.69;101694.94;5030754;28;20029;-64
2022/04/26 08:37:54;;;;;;;13.70;9.45;;;;;;;11.43;66.39;101710.94;5031998;28;20029;-64
2022/04/26 08:40:19;;;;;;;15.23;9.88;;;;;;;11.72;66.25;101704.06;5032230;28;20266;-64
2022/04/26 08:42:51;;;;;;;18.13;9.32;;;;;;;11.90;63.88;101718.22;5046344;28;20025;-63
2022/04/26 08:45:19;;;;;;;13.45;8.85;;;;;;;12.12;63.26;101715.22;5029644;28;20045;-64
2022/04/26 08:53:20;;;;;;;18.23;8.30;;;;;;;12.52;61.46;101724.50;5038519;28;20028;-64
2022/04/26 08:55:48;;;;;;;11.93;7.88;;;;;;;12.47;60.54;101727.47;5037273;28;20082;-64
2022/04/26 08:58:14;;;;;;;11.33;7.83;;;;;;;12.48;60.82;101728.31;5047781;28;20029;-64
2022/04/26 09:01:11;;;;;;;11.30;7.88;;;;;;;12.69;61.06;101726.22;5040042;28;20287;-64
2022/04/26 09:03:59;;;;;;;13.85;7.28;;;;;;;12.78;60.74;101727.50;5032649;28;20380;-65
2022/04/26 09:06:43;;;;;;;11.68;6.75;;;;;;;13.04;59.58;101732.16;5032323;28;20063;-64
2022/04/26 09:09:15;;;;;;;10.43;7.00;;;;;;;13.10;59.07;101729.13;5031018;28;20090;-64
2022/04/26 09:11:42;;;;;;;10.93;7.30;;;;;;;13.22;59.42;101716.00;5049052;28;20032;-64
2022/04/26 09:14:28;;;;;;;13.90;7.18;;;;;;;13.44;57.55;101734.28;5034071;28;20511;-64
2022/04/26 09:17:10;;;;;;;15.55;7.35;;;;;;;13.61;57.44;101726.94;5033435;28;20050;-64
2022/04/26 09:19:54;;;;;;;10.25;6.85;;;;;;;13.57;56.64;101732.59;5044131;28;20025;-64
2022/04/26 09:22:25;;;;;;;15.52;7.28;;;;;;;13.66;54.84;101737.34;5035084;28;20511;-63
2022/04/26 09:24:57;;;;;;;10.27;6.72;;;;;;;13.67;54.25;101735.53;5031827;28;20026;-63
2022/04/26 09:27:23;;;;;;;11.35;6.53;;;;;;;13.74;53.71;101742.25;5049244;28;20072;-63
2022/04/26 09:29:49;;;;;;;7.90;6.03;;;;;;;13.90;54.93;101737.63;5033634;28;20215;-63
2022/04/26 09:32:15;;;;;;;13.48;7.10;;;;;;;14.07;55.01;101724.06;5027854;28;20404;-64
2022/04/26 09:34:40;;;;;;;14.27;6.05;;;;;;;14.38;53.43;101740.81;5046089;28;20017;-64
2022/04/26 09:37:08;;;;;;;12.02;5.88;;;;;;;14.48;51.70;101749.13;5031219;28;20061;-63
2022/04/26 09:39:33;;;;;;;11.40;5.85;;;;;;;14.69;52.03;101746.88;5033197;28;20020;-64
2022/04/26 09:41:59;;;;;;;9.30;5.78;;;;;;;14.86;50.77;101757.34;5033387;28;20032;-64
2022/04/26 09:44:35;;;;;;;10.02;5.95;;;;;;;14.76;49.10;101758.91;5035310;28;20131;-64
2022/04/26 09:47:02;;;;;;;7.07;5.13;;;;;;;14.80;48.78;101770.28;5035429;28;20034;-64
2022/04/26 09:49:36;;;;;;;7.82;5.55;;;;;;;14.91;49.80;101757.00;5032755;28;20443;-64
2022/04/26 09:52:06;;;;;;;10.32;5.80;;;;;;;15.21;48.68;101775.56;5049046;28;20025;-64
2022/04/26 09:54:32;;;;;;;11.07;5.93;;;;;;;15.19;47.10;101778.31;5032082;28;20029;-64
2022/04/26 09:56:59;;;;;;;10.10;5.03;;;;;;;15.32;47.32;101772.13;5031418;28;20022;-64
2022/04/26 09:59:29;;;;;;;7.97;5.57;;;;;;;15.32;46.33;101781.03;5030824;28;20381;-64
2022/04/26 10:02:01;;;;;;;11.93;5.80;;;;;;;15.49;46.04;101777.19;5062664;28;20125;-64
2022/04/26 10:04:31;;;;;;;9.15;5.32;;;;;;;15.70;46.41;101774.00;5033750;28;20043;-64
2022/04/26 10:07:05;;;;;;;8.77;5.57;;;;;;;15.85;46.39;101778.31;5034797;28;20440;-64
2022/04/26 10:09:32;;;;;;;8.43;5.57;;;;;;;15.90;47.39;101790.44;5039600;28;20036;-64
2022/04/26 10:11:59;;;;;;;11.05;5.22;;;;;;;15.77;47.07;101786.06;5034763;28;20477;-64
2022/04/26 10:14:28;;;;;;;9.70;5.40;;;;;;;15.49;47.56;101782.56;5032821;28;20771;-64
2022/04/26 10:16:54;;;;;;;9.20;4.90;;;;;;;15.74;47.49;101786.25;5032533;28;20497;-64
2022/04/26 10:19:36;;;;;;;13.27;5.57;;;;;;;15.92;47.94;101779.59;5048154;28;20029;-64
2022/04/26 10:22:03;;;;;;;11.00;6.00;;;;;;;16.04;46.38;101780.56;5032630;28;20063;-64
2022/04/26 10:24:28;;;;;;;10.35;5.22;;;;;;;16.23;47.05;101790.81;5029005;28;20040;-64
2022/04/26 10:27:18;;;;;;;10.30;4.65;;;;;;;16.13;46.44;101799.53;5034724;28;20033;-64
2022/04/26 10:29:44;;;;;;;9.18;5.35;;;;;;;16.20;45.32;101797.25;5031973;28;20025;-64
2022/04/26 10:32:11;;;;;;;8.40;5.15;;;;;;;16.38;45.27;101792.38;5033088;28;20102;-64
2022/04/26 10:34:39;;;;;;;7.07;4.80;;;;;;;16.56;43.68;101796.44;5031001;28;20060;-64
2022/04/26 10:37:07;;;;;;;8.48;4.70;;;;;;;16.49;43.84;101794.31;5031833;28;20033;-65
2022/04/26 10:39:37;;;;;;;5.60;4.28;;;;;;;16.80;43.25;101806.38;5031904;28;20040;-64
2022/04/26 10:42:27;;;;;;;7.75;5.35;;;;;;;16.73;43.42;101805.94;5034872;28;20025;-64
2022/04/26 10:45:06;;;;;;;6.97;4.45;;;;;;;16.70;43.42;101816.91;5050836;28;20034;-64
2022/04/26 10:47:32;;;;;;;6.43;4.55;;;;;;;16.80;42.01;101803.69;5035082;28;20029;-64
2022/04/26 10:49:58;;;;;;;7.65;4.70;;;;;;;16.86;41.82;101808.63;5032470;28;20033;-65
2022/04/26 10:52:24;;;;;;;7.60;4.20;;;;;;;16.77;41.47;101804.78;5046537;28;20036;-65
2022/04/26 10:54:53;;;;;;;8.68;4.43;;;;;;;16.79;41.36;101808.22;5035085;28;20029;-64
2022/04/26 10:57:27;;;;;;;6.22;4.22;;;;;;;17.00;41.04;101813.81;5032637;28;20049;-65
2022/04/26 10:59:56;;;;;;;6.80;4.65;;;;;;;17.27;41.84;101803.81;5032530;28;20120;-64
2022/04/26 11:02:23;;;;;;;6.88;4.20;;;;;;;17.53;39.66;101807.16;5030842;28;20384;-64
2022/04/26 11:04:57;;;;;;;7.78;4.70;;;;;;;17.77;39.19;101797.19;5031968;28;20994;-64
2022/04/26 11:07:26;;;;;;;8.68;4.30;;;;;;;17.76;38.96;101808.06;5034241;28;20611;-64
2022/04/26 11:09:56;;;;;;;7.93;4.18;;;;;;;17.77;36.51;101810.66;5015141;28;20021;-65
2022/04/26 11:12:24;;;;;;;7.80;4.30;;;;;;;17.70;37.89;101812.94;5051304;28;20387;-65
2022/04/26 11:14:51;;;;;;;7.78;4.28;;;;;;;17.52;38.00;101798.22;5031646;28;20025;-65
2022/04/26 11:17:18;;;;;;;6.50;4.40;;;;;;;17.73;38.23;101798.41;5047219;28;20038;-65
2022/04/26 11:19:54;;;;;;;9.13;4.95;;;;;;;17.72;38.52;101804.75;5048835;28;20028;-65
2022/04/26 11:22:20;;;;;;;8.38;4.47;;;;;;;17.96;38.83;101807.38;5034010;28;20179;-65
2022/04/26 11:30:35;;;;;;;8.85;4.97;;;;;;;18.27;38.77;101804.97;5030131;28;20400;-65
2022/04/26 11:33:22;;;;;;;7.07;4.20;;;;;;;18.56;36.65;101800.75;5030366;28;20132;-65
2022/04/26 11:36:06;;;;;;;8.02;4.38;;;;;;;18.86;37.12;101793.84;5030404;28;20032;-65
2022/04/26 11:39:02;;;;;;;8.90;4.75;;;;;;;19.26;36.08;101815.63;5009512;28;20132;-65
2022/04/26 11:41:27;;;;;;;9.35;4.35;;;;;;;19.71;34.40;101806.47;5009212;28;20133;-65
2022/04/26 11:44:04;;;;;;;6.63;4.63;;;;;;;19.92;33.43;101811.84;4992766;28;20058;-65
2022/04/26 11:46:30;;;;;;;6.07;4.30;;;;;;;20.12;33.45;101796.59;5010483;28;20056;-65
2022/04/26 11:48:59;;;;;;;8.23;4.22;;;;;;;20.83;32.69;101812.75;5009065;28;20038;-65
2022/04/26 11:51:25;;;;;;;8.10;4.38;;;;;;;21.24;30.00;101810.81;4994456;28;20503;-65
2022/04/26 11:53:50;;;;;;;7.68;4.57;;;;;;;21.72;29.93;101820.75;5008393;28;20042;-65
2022/04/26 11:56:17;;;;;;;8.27;4.22;;;;;;;21.97;30.34;101819.22;4997195;28;20121;-65
2022/04/26 11:58:43;;;;;;;6.55;3.95;;;;;;;22.63;29.36;101815.56;4993035;28;20409;-65
2022/04/26 12:01:16;;;;;;;6.18;3.88;;;;;;;22.58;28.73;101816.00;4992683;28;20063;-65
2022/04/26 12:03:49;;;;;;;8.25;4.35;;;;;;;22.66;27.78;101812.53;5008156;28;20409;-66
2022/04/26 12:06:28;;;;;;;8.20;4.25;;;;;;;23.03;28.51;101825.16;5008104;28;20029;-66
2022/04/26 12:08:56;;;;;;;13.45;4.88;;;;;;;23.46;27.69;101818.94;5011750;28;20030;-65
2022/04/26 12:11:27;;;;;;;14.32;5.55;;;;;;;23.69;27.16;101822.00;5031075;28;20079;-66
2022/04/26 12:14:08;;;;;;;7.20;4.47;;;;;;;23.99;26.50;101825.28;5030814;28;20745;-66
2022/04/26 12:16:56;;;;;;;7.43;4.28;;;;;;;24.56;26.85;101822.00;5029317;28;20136;-66
2022/04/26 12:19:40;;;;;;;7.32;4.22;;;;;;;24.79;24.60;101814.91;5045727;28;20430;-66
2022/04/26 12:22:06;;;;;;;6.40;4.18;;;;;;;24.48;24.04;101814.69;5031102;28;20079;-66
2022/04/26 12:24:48;;;;;;;4.40;4.00;;;;;;;24.98;25.83;101818.38;5030686;28;20033;-66
2022/04/26 12:27:16;;;;;;;6.22;3.83;;;;;;;25.30;24.14;101815.72;5031066;28;20095;-67
2022/04/26 12:29:47;;;;;;;4.90;3.40;;;;;;;25.47;24.09;101819.31;5031129;28;20021;-66
2022/04/26 12:32:20;;;;;;;6.93;3.58;;;;;;;25.09;23.76;101813.47;5031277;28;20500;-66
2022/04/26 12:34:56;;;;;;;5.90;3.78;;;;;;;25.01;24.22;101813.44;5029838;28;20029;-66
2022/04/26 12:37:27;;;;;;;4.82;3.22;;;;;;;24.66;23.51;101822.72;5030756;28;20034;-66
2022/04/26 12:39:55;;;;;;;7.30;3.53;;;;;;;24.72;23.68;101821.22;5030968;28;20072;-66
2022/04/26 12:42:26;;;;;;;5.40;3.90;;;;;;;24.20;25.10;101822.16;5029765;28;20033;-66
2022/04/26 12:45:00;;;;;;;8.00;3.40;;;;;;;23.79;24.98;101820.06;5046054;28;20040;-66
2022/04/26 12:50:36;;;;;;;8.80;4.00;;;;;;;21.99;27.24;101822.66;5030564;28;20112;-66
2022/04/26 12:53:04;;;;;;;6.50;4.28;;;;;;;21.16;28.90;101816.06;5030899;28;20036;-66
2022/04/26 12:55:29;;;;;;;7.53;3.85;;;;;;;21.01;29.11;101818.34;5030059;28;20079;-65
2022/04/26 12:57:59;;;;;;;7.78;4.43;;;;;;;21.94;28.04;101823.13;5029467;28;20033;-66
2022/04/26 13:00:26;;;;;;;8.45;4.68;;;;;;;22.29;27.31;101809.88;5045697;28;20104;-66
2022/04/26 13:02:54;;;;;;;8.27;4.20;;;;;;;23.21;26.92;101814.31;5034224;28;20025;-66
2022/04/26 13:05:22;;;;;;;5.40;4.22;;;;;;;24.13;26.08;101816.53;5049841;28;20507;-66
2022/04/26 13:07:49;;;;;;;6.07;4.70;;;;;;;24.07;25.60;101819.91;5050796;28;20056;-66
2022/04/26 13:10:16;;;;;;;7.20;4.40;;;;;;;24.07;25.67;101805.47;5033254;28;20286;-66
2022/04/26 13:12:41;;;;;;;6.05;4.32;;;;;;;23.86;26.51;101816.72;5030689;28;20032;-66
2022/04/26 13:15:08;;;;;;;7.75;3.97;;;;;;;22.73;27.07;101816.34;5028991;28;20037;-66
2022/04/26 13:17:41;;;;;;;5.95;3.67;;;;;;;22.84;28.29;101807.97;5030205;28;20073;-66
2022/04/26 13:20:10;;;;;;;5.90;4.30;;;;;;;23.97;26.24;101814.59;5030046;28;20033;-66
2022/04/26 13:22:37;;;;;;;5.65;4.00;;;;;;;23.25;26.71;101813.00;5045913;28;20087;-66
2022/04/26 13:25:05;;;;;;;5.60;4.03;;;;;;;23.26;27.02;101809.25;5030637;28;20037;-66
2022/04/26 13:27:34;;;;;;;10.05;4.30;;;;;;;22.61;28.39;101806.72;5030473;28;20022;-66
2022/04/26 13:30:00;;;;;;;8.13;4.20;;;;;;;22.12;28.43;101808.78;5030554;28;20033;-66
2022/04/26 13:32:30;;;;;;;5.40;3.88;;;;;;;22.88;27.59;101811.25;5030108;28;20392;-66
2022/04/26 13:34:56;;;;;;;7.43;3.85;;;;;;;22.88;27.78;101800.38;5030362;28;20026;-66
2022/04/26 13:37:22;;;;;;;11.90;4.28;;;;;;;22.19;29.09;101807.22;5049507;28;20029;-66
2022/04/26 13:39:49;;;;;;;10.35;4.30;;;;;;;21.24;29.93;101814.34;5049073;28;20032;-66
2022/04/26 13:42:15;;;;;;;5.47;4.25;;;;;;;20.46;31.61;101810.63;5034005;28;20032;-66
2022/04/26 13:44:41;;;;;;;7.43;4.25;;;;;;;20.19;31.77;101819.38;5033917;28;20029;-66
2022/04/26 13:47:10;;;;;;;7.45;4.47;;;;;;;19.90;32.80;101816.53;5033797;28;20095;-66
2022/04/26 13:49:39;;;;;;;8.52;3.80;;;;;;;19.58;32.94;101825.53;5033256;28;20030;-66
2022/04/26 13:52:09;;;;;;;4.97;4.20;;;;;;;19.31;34.24;101817.94;5034178;28;20396;-66
2022/04/26 13:54:38;;;;;;;7.28;4.45;;;;;;;18.98;34.40;101822.50;5033671;28;20491;-66
2022/04/26 13:57:07;;;;;;;7.25;4.28;;;;;;;18.68;35.23;101828.53;5033972;28;20116;-66
2022/04/26 13:59:36;;;;;;;9.23;4.68;;;;;;;18.21;35.39;101825.16;5032554;28;20492;-66
2022/04/26 14:02:03;;;;;;;8.15;5.18;;;;;;;17.73;36.07;101825.31;5033259;28;20108;-66
2022/04/26 14:04:29;;;;;;;9.23;4.70;;;;;;;17.84;35.75;101825.34;5032964;28;20044;-65
2022/04/26 14:06:54;;;;;;;10.82;4.85;;;;;;;17.84;36.34;101825.34;5033627;28;20021;-65
2022/04/26 14:09:22;;;;;;;7.25;4.80;;;;;;;17.85;35.90;101821.72;5031834;28;20033;-65
2022/04/26 14:11:51;;;;;;;9.93;4.53;;;;;;;17.93;36.40;101823.78;5033782;28;20048;-66
2022/04/26 14:22:32;;;;;;;8.35;4.30;;;;;;;17.40;35.83;101829.63;5033347;28;20044;-65
2022/04/26 14:25:05;;;;;;;8.77;4.13;;;;;;;17.48;34.81;101827.22;5048789;28;20480;-65
2022/04/26 14:27:31;;;;;;;6.22;3.63;;;;;;;17.27;35.77;101831.53;5033295;28;20322;-65
2022/04/26 14:30:00;;;;;;;5.32;3.90;;;;;;;17.20;34.91;101824.91;5048282;28;20596;-65
2022/04/26 14:32:28;;;;;;;3.97;3.55;;;;;;;16.92;36.10;101823.44;5033381;28;20079;-65
2022/04/26 14:34:53;;;;;;;5.88;3.92;;;;;;;16.76;35.96;101827.22;5032727;28;20026;-65
2022/04/26 14:37:19;;;;;;;6.03;4.57;;;;;;;16.72;35.79;101833.78;5032854;28;20405;-65
2022/04/26 14:39:45;;;;;;;5.60;4.10;;;;;;;16.65;36.82;101831.63;5031630;28;20029;-65
2022/04/26 14:42:11;;;;;;;5.18;4.15;;;;;;;16.72;36.72;101830.22;5032799;28;20453;-65
2022/04/26 14:44:37;;;;;;;5.57;4.72;;;;;;;16.85;36.51;101836.44;5032481;28;20025;-65
2022/04/26 14:47:06;;;;;;;7.32;4.68;;;;;;;16.71;36.66;101840.13;5031505;28;20029;-65
2022/04/26 14:49:33;;;;;;;6.18;4.15;;;;;;;16.64;36.57;101830.78;5032228;28;20052;-65
2022/04/26 14:51:59;;;;;;;7.22;3.63;;;;;;;16.64;37.29;101835.31;5032721;28;20032;-65
2022/04/26 14:54:25;;;;;;;5.85;4.45;;;;;;;17.01;36.34;101837.03;5033922;28;20018;-65
2022/04/26 14:56:54;;;;;;;7.80;4.18;;;;;;;16.84;36.74;101834.72;5031726;28;20116;-65
2022/04/26 14:59:22;;;;;;;6.35;4.20;;;;;;;16.85;36.43;101846.34;5031746;28;20033;-65
2022/04/26 15:01:50;;;;;;;7.68;4.35;;;;;;;16.89;36.95;101842.47;5031457;28;20396;-65
2022/04/26 15:04:18;;;;;;;6.63;3.85;;;;;;;16.85;36.44;101849.03;5031820;28;20034;-65
2022/04/26 15:06:44;;;;;;;5.20;4.05;;;;;;;16.65;36.70;101839.69;5031916;28;20029;-65
2022/04/26 15:17:21;;;;;;;8.13;4.43;;;;;;;16.69;37.02;101833.16;5034115;28;20492;-65
2022/04/26 15:19:48;;;;;;;7.32;4.50;;;;;;;16.59;36.32;101838.34;5031486;28;20026;-64
2022/04/26 15:22:19;;;;;;;6.90;4.45;;;;;;;16.77;36.59;101834.34;5047929;28;20049;-65
2022/04/26 15:25:05;;;;;;;6.95;4.35;;;;;;;16.73;36.34;101842.69;5049274;28;20100;-65
2022/04/26 15:27:30;;;;;;;5.97;4.15;;;;;;;16.52;36.81;101843.28;5051387;28;20043;-66
2022/04/26 15:29:56;;;;;;;5.45;3.60;;;;;;;16.70;35.91;101838.38;5033085;28;20691;-64
2022/04/26 15:32:25;;;;;;;5.28;3.63;;;;;;;16.62;35.54;101843.50;5049222;28;20040;-65
2022/04/26 15:34:51;;;;;;;7.13;3.65;;;;;;;16.42;35.04;101839.56;5032700;28;20053;-65
2022/04/26 15:37:17;;;;;;;5.80;3.53;;;;;;;16.39;35.03;101842.47;5050244;28;20424;-65
2022/04/26 15:39:47;;;;;;;6.70;3.47;;;;;;;16.66;33.88;101838.75;5016874;28;20044;-64
2022/04/26 15:42:13;;;;;;;4.28;3.53;;;;;;;16.52;35.13;101837.91;5036065;28;20036;-65
2022/04/26 15:44:39;;;;;;;6.47;3.78;;;;;;;16.37;34.12;101840.84;5029440;28;20073;-65